Mc Gregor, Iowa
Current Conditions -  °F | °C
As of 4:15 AM on Saturday 25 Oct 2014 (Local Time) from KPDC Reporting Station
Clear Clear  
Wind Chill: 55°   Ceiling: Unl
Heat Index: 55°   Visibility: 7mi
Dew Point: 53°   Wind: 7mph
Humidity: 91%   Direction: 290°WNW
Pressure: 29.93"   Gusts: NA
Location:  43.0056°N, 91.2139°W
Report Text: KPDC 250915Z AUTO 29006KT 7SM CLR 13/12 A2993 RMK AO2 T01300116
Loading
Personal Weather Stations






























Interactive Weather Map
Tropical Storm Tracking
New forecast layout! Learn more

10-Day Weather Forecast

Advertisements
Track Severe Weather on mobile